Terminal Aerodrome Forecast
Issued by NWS

Home | Current Version | Previous Version | Text Only | Print | Product List | Glossary On
Versions: 1 2 3 4 5 6 7 8 9 10 11 12 13 14
131
FTUS46 KSEW 240523
TAFBLI
TAF
KBLI 240523Z 2406/2506 VRB05KT P6SM SCT050
     FM241200 17008KT P6SM VCSH SCT028 BKN050
     FM241800 17014KT P6SM VCSH SCT035 BKN050
     FM242100 20009KT P6SM SCT050
     FM250000 17005KT P6SM SKC=

USA.gov is the U.S. government's official web portal to all federal, state and local government web resources and services.